Time,TemperatureF,DewpointF,PressureIn,WindDirection,WindDirectionDegrees,WindSpeedMPH,WindSpeedGustMPH,Humidity,HourlyPrecipIn,Conditions,Clouds,dailyrainin,SolarRadiationWatts/m^2,SoftwareType,DateUTC
2013-02-05 00:01:00,24.0,11.0,-100.00,NNE,14,4.0,5.0,56,0.00,,,0.02,0.000000,,2013-02-05 07:01:00,
2013-02-05 00:11:00,24.0,11.0,-100.00,NNE,14,4.0,5.0,56,0.00,,,0.02,0.000000,,2013-02-05 07:11:00,
2013-02-05 00:22:00,24.0,11.0,-100.00,NNE,14,4.0,5.0,56,0.00,,,0.02,0.000000,,2013-02-05 07:22:00,
2013-02-05 00:52:00,24.0,9.0,-100.00,NNW,344,6.0,10.0,51,0.00,,,0.02,0.000000,,2013-02-05 07:52:00,
2013-02-05 01:01:00,24.0,9.0,-100.00,NNW,344,6.0,10.0,51,0.00,,,0.02,0.000000,,2013-02-05 08:01:00,
2013-02-05 01:11:00,24.0,9.0,-100.00,NNW,344,6.0,10.0,51,0.00,,,0.02,0.000000,,2013-02-05 08:11:00,
2013-02-05 01:21:00,24.0,9.0,-100.00,NNW,344,6.0,10.0,51,0.00,,,0.02,0.000000,,2013-02-05 08:21:00,
2013-02-05 01:42:00,25.0,9.0,-100.00,NNW,334,8.0,11.0,50,0.00,,,0.02,0.000000,,2013-02-05 08:42:00,
2013-02-05 01:52:00,25.0,9.0,-100.00,NNW,334,8.0,11.0,50,0.00,,,0.02,0.000000,,2013-02-05 08:52:00,
2013-02-05 02:02:00,25.0,9.0,-100.00,NNW,334,8.0,11.0,50,0.00,,,0.02,0.000000,,2013-02-05 09:02:00,
2013-02-05 02:11:00,25.0,9.0,-100.00,NNW,334,8.0,11.0,50,0.00,,,0.02,0.000000,,2013-02-05 09:11:00,
2013-02-05 02:21:00,25.0,9.0,-100.00,NNW,334,8.0,11.0,50,0.00,,,0.02,0.000000,,2013-02-05 09:21:00,
2013-02-05 02:52:00,25.0,8.0,-100.00,NNW,336,5.0,10.0,47,0.00,,,0.02,0.000000,,2013-02-05 09:52:00,
2013-02-05 03:01:00,25.0,8.0,-100.00,NNW,336,5.0,10.0,47,0.00,,,0.02,0.000000,,2013-02-05 10:01:00,
2013-02-05 03:11:00,25.0,8.0,-100.00,NNW,336,5.0,10.0,47,0.00,,,0.02,0.000000,,2013-02-05 10:11:00,
2013-02-05 03:21:00,25.0,8.0,-100.00,NNW,336,5.0,10.0,47,0.00,,,0.02,0.000000,,2013-02-05 10:21:00,
2013-02-05 03:52:00,26.0,9.0,-100.00,North,359,8.0,16.0,49,0.00,,,0.02,0.000000,,2013-02-05 10:52:00,
2013-02-05 04:01:00,26.0,9.0,-100.00,North,359,8.0,16.0,49,0.00,,,0.02,0.000000,,2013-02-05 11:01:00,
2013-02-05 04:11:00,26.0,9.0,-100.00,North,359,8.0,16.0,49,0.00,,,0.02,0.000000,,2013-02-05 11:11:00,
2013-02-05 04:22:00,26.0,9.0,-100.00,North,359,8.0,16.0,49,0.00,,,0.02,0.000000,,2013-02-05 11:22:00,
2013-02-05 04:42:00,24.0,9.0,-100.00,NW,321,4.0,10.0,52,0.00,,,0.02,0.000000,,2013-02-05 11:42:00,
2013-02-05 04:52:00,24.0,9.0,-100.00,NW,321,4.0,10.0,52,0.00,,,0.02,0.000000,,2013-02-05 11:52:00,
2013-02-05 05:01:00,24.0,9.0,-100.00,NW,321,4.0,10.0,52,0.00,,,0.02,0.000000,,2013-02-05 12:01:00,
2013-02-05 05:12:00,24.0,9.0,-100.00,NW,321,4.0,10.0,52,0.00,,,0.02,0.000000,,2013-02-05 12:12:00,
2013-02-05 05:21:00,24.0,9.0,-100.00,NW,321,4.0,10.0,52,0.00,,,0.02,0.000000,,2013-02-05 12:21:00,
2013-02-05 05:52:00,24.0,13.0,-100.00,NNW,333,5.0,11.0,61,0.00,,,0.02,0.000000,,2013-02-05 12:52:00,
2013-02-05 06:01:00,24.0,13.0,-100.00,NNW,333,5.0,11.0,61,0.00,,,0.02,0.000000,,2013-02-05 13:01:00,
2013-02-05 06:11:00,24.0,13.0,-100.00,NNW,333,5.0,11.0,61,0.00,,,0.02,0.000000,,2013-02-05 13:11:00,
2013-02-05 06:21:00,24.0,13.0,-100.00,NNW,333,5.0,11.0,61,0.00,,,0.02,0.000000,,2013-02-05 13:21:00,
2013-02-05 06:52:00,24.0,7.0,-100.00,North,0,6.0,9.0,47,0.00,,,0.02,0.000000,,2013-02-05 13:52:00,
2013-02-05 07:01:00,24.0,7.0,-100.00,North,0,6.0,9.0,47,0.00,,,0.02,0.000000,,2013-02-05 14:01:00,
2013-02-05 07:12:00,24.0,7.0,-100.00,North,0,6.0,9.0,47,0.00,,,0.02,0.000000,,2013-02-05 14:12:00,
2013-02-05 07:21:00,24.0,7.0,-100.00,North,0,6.0,9.0,47,0.00,,,0.02,0.000000,,2013-02-05 14:21:00,
2013-02-05 07:52:00,27.0,6.0,-100.00,North,2,8.0,14.0,41,0.00,,,0.02,1.000000,,2013-02-05 14:52:00,
2013-02-05 08:01:00,27.0,6.0,-100.00,North,2,8.0,14.0,41,0.00,,,0.02,1.000000,,2013-02-05 15:01:00,
2013-02-05 08:11:00,27.0,6.0,-100.00,North,2,8.0,14.0,41,0.00,,,0.02,1.000000,,2013-02-05 15:11:00,
2013-02-05 08:21:00,27.0,6.0,-100.00,North,2,8.0,14.0,41,0.00,,,0.02,1.000000,,2013-02-05 15:21:00,
2013-02-05 08:42:00,34.0,6.0,-100.00,North,350,9.0,17.0,30,0.00,,,-99.99,38.000000,,2013-02-05 15:42:00,
2013-02-05 08:52:00,34.0,6.0,-100.00,North,350,9.0,17.0,30,0.00,,,-99.99,38.000000,,2013-02-05 15:52:00,
2013-02-05 09:01:00,34.0,6.0,-100.00,North,350,9.0,17.0,30,0.00,,,-99.99,38.000000,,2013-02-05 16:01:00,
2013-02-05 09:11:00,34.0,6.0,-100.00,North,350,9.0,17.0,30,0.00,,,-99.99,38.000000,,2013-02-05 16:11:00,
2013-02-05 09:21:00,34.0,6.0,-100.00,North,350,9.0,17.0,30,0.00,,,-99.99,38.000000,,2013-02-05 16:21:00,
2013-02-05 09:52:00,39.0,8.0,-100.00,North,10,3.0,13.0,27,0.00,,,-99.99,218.000000,,2013-02-05 16:52:00,
2013-02-05 10:01:00,39.0,8.0,-100.00,North,10,3.0,13.0,27,0.00,,,-99.99,218.000000,,2013-02-05 17:01:00,
2013-02-05 10:11:00,39.0,8.0,-100.00,North,10,3.0,13.0,27,0.00,,,-99.99,218.000000,,2013-02-05 17:11:00,
2013-02-05 10:21:00,39.0,8.0,-100.00,North,10,3.0,13.0,27,0.00,,,-99.99,218.000000,,2013-02-05 17:21:00,
2013-02-05 10:52:00,46.0,10.0,-100.00,SE,133,0.0,5.0,23,0.00,,,0.00,372.000000,,2013-02-05 17:52:00,
2013-02-05 11:01:00,46.0,10.0,-100.00,SE,133,0.0,5.0,23,0.00,,,0.00,372.000000,,2013-02-05 18:01:00,
2013-02-05 11:52:00,53.0,12.0,-100.00,SE,139,1.0,4.0,19,0.00,,,0.00,547.000000,,2013-02-05 18:52:00,
2013-02-05 12:02:00,53.0,12.0,-100.00,SE,139,1.0,4.0,19,0.00,,,0.00,547.000000,,2013-02-05 19:02:00,
2013-02-05 12:52:00,46.0,15.0,-100.00,SW,220,6.0,10.0,28,-99.99,,,0.00,647.000000,,2013-02-05 19:52:00,
2013-02-05 13:01:00,46.0,15.0,-100.00,SW,220,6.0,10.0,28,-99.99,,,0.00,647.000000,,2013-02-05 20:01:00,
2013-02-05 13:11:00,46.0,15.0,-100.00,SW,220,6.0,10.0,28,-99.99,,,0.00,647.000000,,2013-02-05 20:11:00,
2013-02-05 13:21:00,46.0,15.0,-100.00,SW,220,6.0,10.0,28,-99.99,,,0.00,647.000000,,2013-02-05 20:21:00,
2013-02-05 13:42:00,44.0,15.0,-100.00,SSW,207,6.0,10.0,31,0.00,,,0.00,700.000000,,2013-02-05 20:42:00,
2013-02-05 13:52:00,44.0,15.0,-100.00,SSW,207,6.0,10.0,31,0.00,,,0.00,700.000000,,2013-02-05 20:52:00,
2013-02-05 14:01:00,44.0,15.0,-100.00,SSW,207,6.0,10.0,31,0.00,,,0.00,700.000000,,2013-02-05 21:01:00,
2013-02-05 14:11:00,44.0,15.0,-100.00,SSW,207,6.0,10.0,31,0.00,,,0.00,700.000000,,2013-02-05 21:11:00,
2013-02-05 14:21:00,44.0,15.0,-100.00,SSW,207,6.0,10.0,31,0.00,,,0.00,700.000000,,2013-02-05 21:21:00,
2013-02-05 14:52:00,48.0,19.0,-100.00,West,270,3.0,8.0,31,0.00,,,0.00,666.000000,,2013-02-05 21:52:00,
2013-02-05 15:01:00,48.0,19.0,-100.00,West,270,3.0,8.0,31,0.00,,,0.00,666.000000,,2013-02-05 22:01:00,
2013-02-05 15:11:00,48.0,19.0,-100.00,West,270,3.0,8.0,31,0.00,,,0.00,666.000000,,2013-02-05 22:11:00,
2013-02-05 15:21:00,48.0,19.0,-100.00,West,270,3.0,8.0,31,0.00,,,0.00,666.000000,,2013-02-05 22:21:00,
2013-02-05 15:42:00,45.0,21.0,-100.00,SW,219,5.0,9.0,38,0.00,,,0.00,566.000000,,2013-02-05 22:42:00,
2013-02-05 15:52:00,45.0,21.0,-100.00,SW,219,5.0,9.0,38,0.00,,,0.00,566.000000,,2013-02-05 22:52:00,
2013-02-05 16:01:00,45.0,21.0,-100.00,SW,219,5.0,9.0,38,0.00,,,0.00,566.000000,,2013-02-05 23:01:00,
2013-02-05 16:11:00,45.0,21.0,-100.00,SW,219,5.0,9.0,38,0.00,,,0.00,566.000000,,2013-02-05 23:11:00,
2013-02-05 16:21:00,45.0,21.0,-100.00,SW,219,5.0,9.0,38,0.00,,,0.00,566.000000,,2013-02-05 23:21:00,
2013-02-05 16:52:00,47.0,21.0,-100.00,SSE,164,3.0,7.0,36,0.00,,,0.00,417.000000,,2013-02-05 23:52:00,
2013-02-05 17:01:00,47.0,21.0,-100.00,SSE,164,3.0,7.0,36,0.00,,,0.00,417.000000,,2013-02-06 00:01:00,
2013-02-05 17:11:00,47.0,21.0,-100.00,SSE,164,3.0,7.0,36,0.00,,,0.00,417.000000,,2013-02-06 00:11:00,
2013-02-05 17:21:00,47.0,21.0,-100.00,SSE,164,3.0,7.0,36,0.00,,,0.00,417.000000,,2013-02-06 00:21:00,
2013-02-05 17:52:00,43.0,22.0,-100.00,SW,228,4.0,6.0,42,0.00,,,-99.99,227.000000,,2013-02-06 00:52:00,
2013-02-05 18:02:00,43.0,22.0,-100.00,SW,228,4.0,6.0,42,0.00,,,-99.99,227.000000,,2013-02-06 01:02:00,
2013-02-05 18:11:00,43.0,22.0,-100.00,SW,228,4.0,6.0,42,0.00,,,-99.99,227.000000,,2013-02-06 01:11:00,
2013-02-05 18:21:00,43.0,22.0,-100.00,SW,228,4.0,6.0,42,0.00,,,-99.99,227.000000,,2013-02-06 01:21:00,
2013-02-05 18:53:00,33.0,20.0,-100.00,SSW,208,3.0,7.0,59,-99.99,,,0.00,36.000000,,2013-02-06 01:53:00,
2013-02-05 19:01:00,33.0,20.0,-100.00,SSW,208,3.0,7.0,59,-99.99,,,0.00,36.000000,,2013-02-06 02:01:00,
2013-02-05 19:11:00,33.0,20.0,-100.00,SSW,208,3.0,7.0,59,-99.99,,,0.00,36.000000,,2013-02-06 02:11:00,
2013-02-05 19:21:00,33.0,20.0,-100.00,SSW,208,3.0,7.0,59,-99.99,,,0.00,36.000000,,2013-02-06 02:21:00,
2013-02-05 19:52:00,28.0,19.0,-100.00,WSW,242,2.0,4.0,68,0.00,,,0.00,0.000000,,2013-02-06 02:52:00,
2013-02-05 20:02:00,28.0,19.0,-100.00,WSW,242,2.0,4.0,68,0.00,,,0.00,0.000000,,2013-02-06 03:02:00,
2013-02-05 20:11:00,28.0,19.0,-100.00,WSW,242,2.0,4.0,68,0.00,,,0.00,0.000000,,2013-02-06 03:11:00,
2013-02-05 20:21:00,28.0,19.0,-100.00,WSW,242,2.0,4.0,68,0.00,,,0.00,0.000000,,2013-02-06 03:21:00,
2013-02-05 20:53:00,25.0,20.0,-100.00,NW,311,3.0,3.0,80,0.00,,,-99.99,0.000000,,2013-02-06 03:53:00,
2013-02-05 21:01:00,25.0,20.0,-100.00,NW,311,3.0,3.0,80,0.00,,,-99.99,0.000000,,2013-02-06 04:01:00,
2013-02-05 21:11:00,25.0,20.0,-100.00,NW,311,3.0,3.0,80,0.00,,,-99.99,0.000000,,2013-02-06 04:11:00,
2013-02-05 21:21:00,25.0,20.0,-100.00,NW,311,3.0,3.0,80,0.00,,,-99.99,0.000000,,2013-02-06 04:21:00,
2013-02-05 21:52:00,24.0,19.0,-100.00,NW,326,0.0,5.0,82,0.00,,,0.00,0.000000,,2013-02-06 04:52:00,
2013-02-05 22:01:00,24.0,19.0,-100.00,NW,326,0.0,5.0,82,0.00,,,0.00,0.000000,,2013-02-06 05:01:00,
2013-02-05 22:12:00,24.0,19.0,-100.00,NW,326,0.0,5.0,82,0.00,,,0.00,0.000000,,2013-02-06 05:12:00,
2013-02-05 22:22:00,24.0,19.0,-100.00,NW,326,0.0,5.0,82,0.00,,,0.00,0.000000,,2013-02-06 05:22:00,
2013-02-05 22:53:00,22.0,19.0,-100.00,East,83,1.0,3.0,87,0.00,,,0.00,0.000000,,2013-02-06 05:53:00,
2013-02-05 23:01:00,22.0,19.0,-100.00,East,83,1.0,3.0,87,0.00,,,0.00,0.000000,,2013-02-06 06:01:00,
2013-02-05 23:11:00,22.0,19.0,-100.00,East,83,1.0,3.0,87,0.00,,,0.00,0.000000,,2013-02-06 06:11:00,
2013-02-05 23:21:00,22.0,19.0,-100.00,East,83,1.0,3.0,87,0.00,,,0.00,0.000000,,2013-02-06 06:21:00,
2013-02-05 23:52:00,23.0,18.0,-100.00,ESE,114,2.0,3.0,82,0.00,,,0.00,0.000000,,2013-02-06 06:52:00,